Time;durP1;ratioP1;P1;durP2;ratioP2;P2;SDS_P1;SDS_P2;PMS_P1;PMS_P2;Temp;Humidity;BMP_temperature;BMP_pressure;BME280_temperature;BME280_humidity;BME280_pressure;Samples;Min_cycle;Max_cycle;Signal;HPM_P1;HPM_P2
2022/04/11 00:01:52;;;;;;;17.60;5.47;;;1.70;99.90;;;;;;6065126;23;20018;-83
2022/04/11 00:04:18;;;;;;;14.02;5.43;;;-0.30;99.90;;;;;;6090316;23;20037;-84
2022/04/11 00:06:44;;;;;;;9.85;4.75;;;1.80;99.90;;;;;;6090672;23;20107;-84
2022/04/11 00:09:09;;;;;;;13.98;5.05;;;2.00;99.90;;;;;;6063759;23;20590;-87
2022/04/11 00:11:36;;;;;;;17.10;5.30;;;;;;;;;;6091514;23;20382;-84
2022/04/11 00:14:04;;;;;;;10.50;4.85;;;2.00;99.90;;;;;;6092164;23;20026;-86
2022/04/11 00:16:30;;;;;;;15.70;4.75;;;3.60;99.90;;;;;;6091527;23;20101;-83
2022/04/11 00:18:56;;;;;;;13.90;5.05;;;1.80;99.90;;;;;;6092571;23;20022;-84
2022/04/11 00:21:21;;;;;;;11.45;4.90;;;1.70;99.90;;;;;;6063514;23;20478;-85
2022/04/11 00:23:47;;;;;;;15.48;5.57;;;2.70;99.90;;;;;;6093070;23;20029;-89
2022/04/11 00:26:13;;;;;;;12.90;5.57;;;2.20;99.90;;;;;;6088411;23;20022;-84
2022/04/11 00:28:38;;;;;;;19.67;5.85;;;5.00;99.90;;;;;;6090370;23;20413;-83
2022/04/11 00:31:04;;;;;;;11.38;5.28;;;3.20;99.90;;;;;;6091398;23;20029;-84
2022/04/11 00:33:30;;;;;;;12.95;5.53;;;1.70;99.90;;;;;;6063305;23;20093;-84
2022/04/11 00:35:55;;;;;;;31.52;6.72;;;0.50;99.90;;;;;;6088793;23;20022;-83
2022/04/11 00:38:21;;;;;;;19.63;5.60;;;0.70;99.90;;;;;;6088108;23;20022;-84
2022/04/11 00:40:47;;;;;;;12.40;5.97;;;1.50;99.90;;;;;;6090402;23;20054;-83
2022/04/11 00:43:35;;;;;;;15.55;5.95;;;1.60;99.90;;;;;;6090115;23;20446;-84
2022/04/11 00:46:02;;;;;;;16.08;6.05;;;0.80;99.90;;;;;;6089848;23;20108;-86
2022/04/11 00:48:28;;;;;;;11.50;5.05;;;-0.10;99.90;;;;;;6088942;23;20073;-88
2022/04/11 00:50:58;;;;;;;15.63;5.88;;;0.90;99.90;;;;;;6090069;23;20327;-84
2022/04/11 00:53:25;;;;;;;13.73;5.93;;;3.40;99.90;;;;;;6093699;23;20018;-87
2022/04/11 00:55:52;;;;;;;17.05;6.18;;;-0.10;99.90;;;;;;6066260;23;20077;-84
2022/04/11 00:58:18;;;;;;;14.02;5.45;;;3.40;99.90;;;;;;6086034;23;20359;-85
2022/04/11 01:00:44;;;;;;;23.33;6.20;;;;;;;;;;6089812;23;20062;-87
2022/04/11 01:03:10;;;;;;;17.02;5.40;;;1.60;99.90;;;;;;6089731;23;20105;-84
2022/04/11 01:05:36;;;;;;;15.15;5.22;;;3.70;99.90;;;;;;6090894;23;20022;-83
2022/04/11 01:08:06;;;;;;;11.43;5.47;;;1.60;99.90;;;;;;6092055;23;20054;-89
2022/04/11 01:10:33;;;;;;;13.60;5.78;;;;;;;;;;6090078;23;20022;-87
2022/04/11 01:12:59;;;;;;;15.05;5.72;;;1.10;99.90;;;;;;6090804;23;20022;-84
2022/04/11 01:15:25;;;;;;;22.85;6.28;;;;;;;;;;6090530;23;20018;-84
2022/04/11 01:17:51;;;;;;;14.93;6.13;;;1.30;99.90;;;;;;6063216;23;20019;-83
2022/04/11 01:20:17;;;;;;;15.55;5.55;;;1.40;99.90;;;;;;6090294;23;20192;-83
2022/04/11 01:22:43;;;;;;;13.23;5.90;;;0.40;99.90;;;;;;6091233;23;20022;-84
2022/04/11 01:25:13;;;;;;;15.00;5.90;;;0.40;99.90;;;;;;6063041;23;20037;-86
2022/04/11 01:27:40;;;;;;;13.45;5.32;;;0.50;99.90;;;;;;6090261;23;20097;-89
2022/04/11 01:30:08;;;;;;;11.25;5.28;;;0.80;99.90;;;;;;6088702;23;20409;-84
2022/04/11 01:32:35;;;;;;;14.20;5.70;;;1.30;1.00;;;;;;6089023;23;20023;-84
2022/04/11 01:35:01;;;;;;;15.07;5.47;;;1.90;99.90;;;;;;6087906;23;20097;-85
2022/04/11 01:37:27;;;;;;;14.48;6.15;;;;;;;;;;6088010;23;20056;-85
2022/04/11 01:39:53;;;;;;;14.80;5.88;;;3.40;99.90;;;;;;6088490;23;20057;-83
2022/04/11 01:42:19;;;;;;;15.65;5.97;;;0.40;99.90;;;;;;6062537;23;20019;-87
2022/04/11 01:44:45;;;;;;;11.20;5.25;;;2.60;99.90;;;;;;6087815;23;20026;-85
2022/04/11 01:47:11;;;;;;;10.50;5.13;;;1.80;99.90;;;;;;6062601;23;20476;-84
2022/04/11 01:49:37;;;;;;;18.48;6.45;;;;;;;;;;6062056;23;20029;-86
2022/04/11 01:52:03;;;;;;;14.70;6.10;;;0.30;99.90;;;;;;6088354;23;20101;-85
2022/04/11 01:54:29;;;;;;;13.57;5.88;;;;;;;;;;6091283;23;20465;-85
2022/04/11 01:56:55;;;;;;;12.93;5.93;;;0.10;99.90;;;;;;6088676;23;20101;-85
2022/04/11 01:59:20;;;;;;;16.92;6.32;;;0.20;99.90;;;;;;6088688;23;20053;-84
2022/04/11 02:01:46;;;;;;;14.27;6.03;;;0.60;99.90;;;;;;6091113;23;20081;-84
2022/04/11 02:04:12;;;;;;;13.27;5.53;;;3.00;99.90;;;;;;6090321;23;20018;-84
2022/04/11 02:06:37;;;;;;;22.00;6.20;;;0.60;99.90;;;;;;6086316;23;20026;-85
2022/04/11 02:09:04;;;;;;;14.68;6.13;;;1.00;99.90;;;;;;6088039;23;20019;-90
2022/04/11 02:11:30;;;;;;;10.40;5.32;;;0.40;99.90;;;;;;6085721;23;20038;-85
2022/04/11 02:13:55;;;;;;;15.15;5.32;;;3.00;99.90;;;;;;6088954;23;20472;-88
2022/04/11 02:16:23;;;;;;;14.10;5.68;;;;;;;;;;6065065;23;20022;-84
2022/04/11 02:18:49;;;;;;;15.38;6.13;;;1.00;99.90;;;;;;6091998;23;20033;-84
2022/04/11 02:21:15;;;;;;;14.20;6.10;;;0.70;99.90;;;;;;6092477;23;20085;-85
2022/04/11 02:23:41;;;;;;;16.48;5.63;;;4.10;99.90;;;;;;6093630;23;20028;-84
2022/04/11 02:26:06;;;;;;;20.02;5.40;;;1.70;99.90;;;;;;6092183;23;20019;-86
2022/04/11 02:28:33;;;;;;;35.85;7.18;;;;;;;;;;6092358;23;20025;-84
2022/04/11 02:30:59;;;;;;;11.25;5.43;;;;;;;;;;6090988;23;20106;-84
2022/04/11 02:33:24;;;;;;;12.75;5.45;;;-0.40;99.90;;;;;;6091485;23;20041;-84
2022/04/11 02:35:50;;;;;;;16.77;5.10;;;1.20;99.90;;;;;;6086699;23;20398;-84
2022/04/11 02:38:16;;;;;;;49.90;7.72;;;-0.20;99.90;;;;;;6088291;23;20019;-84
2022/04/11 02:40:42;;;;;;;19.67;6.50;;;1.10;99.90;;;;;;6092899;23;20105;-85
2022/04/11 02:43:07;;;;;;;18.77;6.15;;;-0.10;99.90;;;;;;6088966;23;20074;-84
2022/04/11 02:45:33;;;;;;;13.63;5.50;;;3.90;99.90;;;;;;6088862;23;20022;-84
2022/04/11 02:47:59;;;;;;;11.63;5.40;;;3.50;99.90;;;;;;6038511;23;20018;-84
2022/04/11 02:50:24;;;;;;;13.93;6.05;;;1.90;99.90;;;;;;6089404;23;20471;-84
2022/04/11 02:52:50;;;;;;;75.60;9.57;;;2.70;99.90;;;;;;6088907;23;20109;-84
2022/04/11 02:55:16;;;;;;;117.10;12.85;;;1.10;99.90;;;;;;6089597;23;20086;-90
2022/04/11 02:57:42;;;;;;;14.65;5.97;;;0.60;99.90;;;;;;6092693;23;20457;-83
2022/04/11 03:00:14;;;;;;;13.05;5.70;;;1.60;99.90;;;;;;6091864;23;20066;-87
2022/04/11 03:02:41;;;;;;;33.13;6.60;;;2.50;99.90;;;;;;6091287;23;20023;-83
2022/04/11 03:05:07;;;;;;;10.05;4.80;;;3.60;99.90;;;;;;6064440;23;20090;-88
2022/04/11 03:07:33;;;;;;;36.78;7.28;;;1.00;99.90;;;;;;6091906;23;20102;-86
2022/04/11 03:09:58;;;;;;;14.15;4.88;;;1.50;99.90;;;;;;6090795;23;20061;-83
2022/04/11 03:12:27;;;;;;;13.02;5.53;;;0.90;99.90;;;;;;6092923;23;20371;-84
2022/04/11 03:14:53;;;;;;;11.73;5.28;;;3.40;99.90;;;;;;6093360;23;20029;-88
2022/04/11 03:17:19;;;;;;;15.63;5.15;;;0.80;99.90;;;;;;6094959;23;20026;-84
2022/04/11 03:19:45;;;;;;;14.55;5.15;;;-0.40;99.90;;;;;;6064756;23;20338;-83
2022/04/11 03:22:11;;;;;;;16.38;5.82;;;0.80;99.90;;;;;;6066023;23;20128;-90
2022/04/11 03:24:38;;;;;;;17.52;5.75;;;-0.40;99.90;;;;;;6095096;23;20033;-84
2022/04/11 03:27:05;;;;;;;11.50;4.97;;;0.30;99.90;;;;;;6092502;23;20018;-85
2022/04/11 03:29:31;;;;;;;12.13;5.18;;;3.50;99.90;;;;;;6065373;23;20022;-85
2022/04/11 03:31:57;;;;;;;14.07;5.03;;;0.70;99.90;;;;;;6094907;23;20018;-84
2022/04/11 03:34:23;;;;;;;16.55;5.53;;;0.50;99.90;;;;;;6094578;23;20418;-84
2022/04/11 03:36:51;;;;;;;116.22;11.48;;;0.70;99.90;;;;;;6047603;23;20029;-84
2022/04/11 03:39:16;;;;;;;13.73;5.07;;;1.00;99.90;;;;;;6095634;23;20018;-85
2022/04/11 03:41:43;;;;;;;13.88;5.18;;;1.80;99.90;;;;;;6090702;23;20085;-86
2022/04/11 03:44:10;;;;;;;11.82;5.43;;;1.60;99.90;;;;;;6092438;23;20054;-84
2022/04/11 03:46:37;;;;;;;12.60;5.35;;;1.20;99.90;;;;;;6090545;23;20085;-84
2022/04/11 03:49:03;;;;;;;20.73;6.43;;;3.40;99.90;;;;;;6091082;23;20093;-86
2022/04/11 03:51:29;;;;;;;13.10;4.90;;;1.30;99.90;;;;;;6088446;23;20018;-84
2022/04/11 03:53:55;;;;;;;13.10;5.13;;;3.10;99.90;;;;;;6089872;23;20441;-84
2022/04/11 03:56:21;;;;;;;11.10;5.75;;;2.60;99.90;;;;;;6040726;23;20022;-83
2022/04/11 03:58:47;;;;;;;11.63;5.60;;;;;;;;;;6093585;23;20025;-84
2022/04/11 04:01:13;;;;;;;22.48;5.88;;;0.30;99.90;;;;;;6088641;23;20089;-87
2022/04/11 04:03:40;;;;;;;15.07;4.20;;;1.60;99.90;;;;;;6064310;23;20029;-83
2022/04/11 04:06:06;;;;;;;9.97;4.47;;;;;;;;;;6092093;23;20323;-84
2022/04/11 04:08:32;;;;;;;16.27;4.22;;;0.70;99.90;;;;;;6091668;23;20343;-84
2022/04/11 04:10:57;;;;;;;49.58;7.03;;;1.50;99.90;;;;;;6093570;23;20022;-84
2022/04/11 04:13:23;;;;;;;15.13;4.25;;;0.60;99.90;;;;;;6067313;23;20022;-84
2022/04/11 04:15:49;;;;;;;10.70;4.40;;;0.20;99.90;;;;;;6067570;23;20022;-83
2022/04/11 04:18:16;;;;;;;8.75;3.78;;;;;;;;;;6092846;23;20127;-84
2022/04/11 04:20:42;;;;;;;12.82;4.13;;;1.90;99.90;;;;;;6093374;23;20093;-84
2022/04/11 04:23:08;;;;;;;9.48;3.20;;;2.00;99.90;;;;;;6093237;23;20319;-84
2022/04/11 04:25:34;;;;;;;8.23;3.25;;;4.50;99.90;;;;;;6091937;23;20025;-88
2022/04/11 04:28:01;;;;;;;11.60;3.67;;;1.90;99.90;;;;;;6094128;23;20018;-84
2022/04/11 04:30:28;;;;;;;9.05;3.72;;;1.40;99.90;;;;;;6093235;23;20158;-85
2022/04/11 04:32:55;;;;;;;11.10;3.30;;;;;;;;;;6093219;23;20111;-84
2022/04/11 04:35:20;;;;;;;11.15;3.40;;;3.20;99.90;;;;;;6067602;23;20461;-85
2022/04/11 04:37:46;;;;;;;10.43;3.50;;;5.10;99.90;;;;;;6094551;23;20019;-83
2022/04/11 04:40:12;;;;;;;9.00;3.45;;;;;;;;;;6067759;23;20014;-84
2022/04/11 04:42:38;;;;;;;7.88;3.40;;;;;;;;;;6092834;23;20326;-84
2022/04/11 04:45:06;;;;;;;13.05;3.03;;;4.20;99.90;;;;;;6067750;23;20027;-85
2022/04/11 04:47:32;;;;;;;7.07;2.75;;;3.00;99.90;;;;;;6091950;23;20069;-83
2022/04/11 04:49:58;;;;;;;8.82;3.33;;;1.00;99.90;;;;;;6092237;23;20022;-83
2022/04/11 04:52:23;;;;;;;8.27;2.70;;;3.90;99.90;;;;;;6093981;23;20337;-84
2022/04/11 04:54:49;;;;;;;6.97;2.75;;;2.30;99.90;;;;;;6093993;23;20026;-84
2022/04/11 04:57:15;;;;;;;8.13;2.88;;;2.90;99.90;;;;;;6044278;23;20018;-87
2022/04/11 04:59:41;;;;;;;7.45;3.20;;;;;;;;;;6093460;23;20089;-84
2022/04/11 05:02:06;;;;;;;8.95;3.45;;;2.40;99.90;;;;;;6067300;23;20501;-84
2022/04/11 05:04:32;;;;;;;9.30;2.92;;;2.20;99.90;;;;;;6093825;23;20053;-84
2022/04/11 05:06:58;;;;;;;11.65;3.45;;;4.20;99.90;;;;;;6093133;23;20098;-83
2022/04/11 05:09:24;;;;;;;8.25;3.17;;;2.10;99.90;;;;;;6093444;23;20022;-88
2022/04/11 05:11:50;;;;;;;7.78;2.97;;;2.40;99.90;;;;;;6094545;23;20022;-84
2022/04/11 05:14:15;;;;;;;13.15;3.05;;;4.40;99.90;;;;;;6069078;23;20105;-83
2022/04/11 05:16:41;;;;;;;11.48;3.08;;;4.70;99.90;;;;;;6093396;23;20477;-84
2022/04/11 05:19:07;;;;;;;7.30;2.72;;;4.00;99.90;;;;;;6093616;23;20023;-85
2022/04/11 05:21:32;;;;;;;8.68;2.67;;;3.50;99.90;;;;;;6093268;23;20458;-86
2022/04/11 05:23:58;;;;;;;8.73;3.33;;;2.80;99.90;;;;;;6094063;23;20022;-85
2022/04/11 05:26:24;;;;;;;7.63;2.70;;;2.80;99.90;;;;;;6065914;23;20023;-87
2022/04/11 05:28:50;;;;;;;7.68;2.80;;;3.40;99.90;;;;;;6043571;23;20080;-84
2022/04/11 05:31:16;;;;;;;7.55;2.90;;;5.20;99.90;;;;;;6092801;23;20304;-84
2022/04/11 05:33:42;;;;;;;7.13;2.78;;;2.90;99.90;;;;;;6093931;23;20061;-84
2022/04/11 05:36:08;;;;;;;9.38;3.22;;;5.70;99.90;;;;;;6068168;23;20130;-86
2022/04/11 05:38:33;;;;;;;8.75;2.70;;;1.40;99.90;;;;;;6066087;23;20026;-86
2022/04/11 05:40:59;;;;;;;8.23;2.83;;;4.20;99.90;;;;;;6067596;23;20018;-85
2022/04/11 05:43:25;;;;;;;7.20;3.00;;;;;;;;;;6094212;23;20431;-88
2022/04/11 05:45:51;;;;;;;12.65;3.20;;;3.30;99.90;;;;;;6094755;23;20061;-84
2022/04/11 05:48:16;;;;;;;7.55;2.90;;;3.30;99.90;;;;;;6068079;23;20493;-85
2022/04/11 05:50:42;;;;;;;8.13;3.20;;;3.50;99.90;;;;;;6068000;23;20095;-85
2022/04/11 05:53:08;;;;;;;8.65;2.92;;;4.20;99.90;;;;;;6094876;23;20050;-85
2022/04/11 05:55:34;;;;;;;9.70;2.83;;;;;;;;;;6093647;23;20454;-84
2022/04/11 05:58:00;;;;;;;7.03;2.80;;;3.50;99.90;;;;;;6068188;23;20019;-86
2022/04/11 06:00:26;;;;;;;11.60;2.63;;;;;;;;;;6066978;23;20499;-87
2022/04/11 06:02:52;;;;;;;11.35;2.90;;;3.60;99.90;;;;;;6068022;23;20019;-84
2022/04/11 06:05:18;;;;;;;7.65;3.00;;;6.20;99.90;;;;;;6093834;23;20407;-84
2022/04/11 06:07:44;;;;;;;8.25;3.00;;;3.10;99.90;;;;;;6093328;23;20026;-84
2022/04/11 06:10:10;;;;;;;7.05;2.70;;;3.70;99.90;;;;;;6093615;23;20014;-84
2022/04/11 06:12:36;;;;;;;11.30;3.05;;;3.70;99.90;;;;;;6093664;23;20341;-84
2022/04/11 06:15:03;;;;;;;8.75;2.42;;;2.50;99.90;;;;;;6068600;23;20128;-84
2022/04/11 06:17:29;;;;;;;8.13;2.93;;;3.90;99.90;;;;;;6067262;23;20365;-84
2022/04/11 06:20:00;;;;;;;9.93;3.13;;;3.10;99.90;;;;;;6043729;23;20054;-85
2022/04/11 06:22:26;;;;;;;12.68;2.90;;;5.30;99.90;;;;;;6094586;23;20015;-84
2022/04/11 06:25:01;;;;;;;6.95;2.72;;;4.20;99.90;;;;;;6095949;23;20026;-84
2022/04/11 06:27:27;;;;;;;7.38;2.53;;;4.20;99.90;;;;;;6096185;23;20025;-88
2022/04/11 06:29:56;;;;;;;10.23;3.08;;;;;;;;;;6095854;23;20022;-84
2022/04/11 06:32:33;;;;;;;7.90;2.60;;;4.30;99.90;;;;;;6095722;23;20055;-85
2022/04/11 06:34:58;;;;;;;14.10;2.88;;;4.80;99.90;;;;;;6096187;23;20026;-84
2022/04/11 06:37:25;;;;;;;5.88;2.40;;;4.60;99.90;;;;;;6046121;23;20085;-85
2022/04/11 06:39:51;;;;;;;12.55;3.13;;;5.90;99.90;;;;;;6069860;23;20033;-84
2022/04/11 06:42:17;;;;;;;7.97;2.97;;;4.50;99.90;;;;;;6096393;23;20022;-84
2022/04/11 06:44:43;;;;;;;10.25;3.20;;;2.90;99.90;;;;;;6095854;23;20030;-84
2022/04/11 06:47:09;;;;;;;10.32;3.55;;;5.00;99.90;;;;;;6069587;23;20421;-84
2022/04/11 06:49:37;;;;;;;12.02;3.35;;;4.80;99.90;;;;;;6095455;23;20018;-84
2022/04/11 06:52:04;;;;;;;9.07;3.13;;;5.20;99.90;;;;;;6096107;23;20099;-84
2022/04/11 06:54:33;;;;;;;10.63;3.08;;;4.90;99.90;;;;;;6096467;23;20029;-88
2022/04/11 06:56:59;;;;;;;7.07;3.00;;;6.40;99.90;;;;;;6070815;23;20019;-84
2022/04/11 06:59:25;;;;;;;9.88;3.10;;;7.10;99.90;;;;;;6095249;23;20085;-83
2022/04/11 07:01:54;;;;;;;7.38;3.15;;;6.60;99.90;;;;;;6068455;23;20157;-84
2022/04/11 07:04:20;;;;;;;14.57;3.42;;;6.50;99.90;;;;;;6070930;23;20088;-84
2022/04/11 07:06:47;;;;;;;14.80;4.38;;;;;;;;;;6094188;23;20030;-84
2022/04/11 07:09:13;;;;;;;12.32;3.63;;;5.30;99.90;;;;;;6069361;23;20023;-85
2022/04/11 07:11:39;;;;;;;13.25;4.32;;;5.30;99.90;;;;;;6069334;23;20026;-84
2022/04/11 07:14:06;;;;;;;11.82;4.28;;;7.10;99.90;;;;;;6095725;23;20018;-84
2022/04/11 07:16:32;;;;;;;12.25;4.05;;;6.70;99.90;;;;;;6094766;23;20037;-88
2022/04/11 07:18:57;;;;;;;8.85;3.47;;;7.70;99.90;;;;;;6069541;23;20318;-84
2022/04/11 07:21:23;;;;;;;8.60;3.80;;;5.70;99.90;;;;;;6094705;23;20469;-85
2022/04/11 07:23:49;;;;;;;8.82;3.40;;;6.00;99.90;;;;;;6094487;23;20465;-85
2022/04/11 07:26:15;;;;;;;12.00;3.78;;;6.00;99.90;;;;;;6095345;23;20028;-84
2022/04/11 07:28:41;;;;;;;8.60;3.45;;;;;;;;;;6094972;23;20093;-84
2022/04/11 07:31:07;;;;;;;13.80;3.17;;;6.30;99.90;;;;;;6069370;23;20472;-85
2022/04/11 07:33:33;;;;;;;9.88;3.50;;;6.40;99.90;;;;;;6093919;23;20053;-89
2022/04/11 07:35:59;;;;;;;9.07;3.58;;;;;;;;;;6094635;23;20033;-83
2022/04/11 07:38:25;;;;;;;10.65;3.40;;;6.70;99.10;;;;;;6095017;23;20019;-84
2022/04/11 07:40:51;;;;;;;10.77;3.78;;;6.90;99.50;;;;;;6094669;23;20057;-84
2022/04/11 07:43:16;;;;;;;9.93;3.58;;;6.90;99.90;;;;;;6095005;23;20093;-84
2022/04/11 07:45:42;;;;;;;9.85;3.78;;;7.40;90.90;;;;;;6094585;23;20023;-84
2022/04/11 07:48:09;;;;;;;10.32;3.75;;;9.20;91.10;;;;;;6094574;23;20029;-84
2022/04/11 07:50:35;;;;;;;13.30;4.00;;;7.50;94.40;;;;;;6094390;23;20025;-88
2022/04/11 07:53:00;;;;;;;11.38;4.00;;;7.70;98.40;;;;;;6094965;23;20018;-84
2022/04/11 07:55:26;;;;;;;9.32;3.75;;;7.90;99.50;;;;;;6069130;23;20422;-83
2022/04/11 07:57:53;;;;;;;10.85;4.00;;;8.20;93.30;;;;;;6092560;23;20555;-85
2022/04/11 08:00:20;;;;;;;10.65;3.67;;;8.30;17.90;;;;;;6069708;23;20033;-84
2022/04/11 08:02:53;;;;;;;9.60;3.65;;;8.40;1.00;;;;;;6094041;23;20132;-84
2022/04/11 08:05:19;;;;;;;10.35;3.45;;;8.60;16.40;;;;;;6094530;23;20098;-84
2022/04/11 08:07:46;;;;;;;12.68;3.83;;;9.10;20.30;;;;;;6094344;23;20437;-84
2022/04/11 08:10:13;;;;;;;15.25;3.67;;;9.10;43.00;;;;;;6094608;23;20022;-85
2022/04/11 08:12:40;;;;;;;9.80;3.63;;;9.40;23.30;;;;;;6068750;23;20097;-84
2022/04/11 08:15:06;;;;;;;8.32;3.65;;;10.80;1.00;;;;;;6094799;23;20022;-84
2022/04/11 08:17:32;;;;;;;11.00;3.80;;;9.90;1.00;;;;;;6093794;23;20457;-84
2022/04/11 08:19:57;;;;;;;8.48;3.72;;;10.30;1.00;;;;;;6094233;23;20018;-83
2022/04/11 08:22:23;;;;;;;10.15;3.80;;;10.90;1.00;;;;;;6044989;23;20423;-85
2022/04/11 08:24:49;;;;;;;10.27;3.40;;;11.50;1.00;;;;;;6093971;23;20018;-84
2022/04/11 08:27:15;;;;;;;7.80;3.72;;;11.60;1.00;;;;;;6094116;23;20025;-85
2022/04/11 08:29:41;;;;;;;11.60;3.70;;;12.20;1.00;;;;;;6068437;23;20014;-84
2022/04/11 08:32:07;;;;;;;9.32;3.92;;;13.30;1.00;;;;;;6094046;23;20033;-84
2022/04/11 08:34:32;;;;;;;15.18;3.47;;;14.20;1.00;;;;;;6094189;23;20023;-84
2022/04/11 08:36:58;;;;;;;8.35;2.95;;;15.20;1.00;;;;;;6068004;23;20089;-84
2022/04/11 08:39:24;;;;;;;8.98;2.85;;;16.20;1.00;;;;;;6044892;23;20045;-84
2022/04/11 08:41:52;;;;;;;10.55;3.15;;;16.80;1.00;;;;;;6068230;23;20113;-84
2022/04/11 08:44:18;;;;;;;6.13;2.47;;;17.60;1.00;;;;;;6094673;23;20018;-88
2022/04/11 08:46:44;;;;;;;11.07;3.15;;;17.50;1.00;;;;;;6067227;23;20023;-84
2022/04/11 08:49:11;;;;;;;10.55;2.85;;;17.70;1.00;;;;;;6093926;23;20359;-84
2022/04/11 08:51:37;;;;;;;8.07;2.60;;;18.70;1.00;;;;;;6068205;23;20061;-84
2022/04/11 08:54:05;;;;;;;14.32;2.60;;;19.30;1.00;;;;;;6068666;23;20078;-84
2022/04/11 08:56:31;;;;;;;9.70;2.78;;;19.80;1.00;;;;;;6094280;23;20029;-84
2022/04/11 08:58:57;;;;;;;9.80;2.83;;;20.40;1.00;;;;;;6093619;23;20438;-84
2022/04/11 09:01:24;;;;;;;8.82;2.90;;;20.40;99.90;;;;;;6093906;23;20323;-85
2022/04/11 09:03:50;;;;;;;8.57;2.88;;;20.00;99.90;;;;;;6068082;23;20101;-85
2022/04/11 09:06:17;;;;;;;10.80;2.92;;;20.20;99.90;;;;;;6067747;23;20341;-84
2022/04/11 09:08:51;;;;;;;7.10;2.28;;;20.80;99.90;;;;;;6093613;23;20025;-85
2022/04/11 09:11:46;;;;;;;6.97;2.53;;;20.80;99.90;;;;;;6094302;23;20015;-84
2022/04/11 09:14:12;;;;;;;9.20;2.58;;;21.70;99.90;;;;;;6081457;23;20022;-83
2022/04/11 09:16:44;;;;;;;11.02;3.03;;;22.00;99.90;;;;;;6093677;23;20018;-84
2022/04/11 09:19:36;;;;;;;7.75;2.35;;;22.60;99.90;;;;;;6068773;23;20026;-86
2022/04/11 09:22:03;;;;;;;7.50;2.17;;;23.00;99.90;;;;;;6089756;23;20023;-84
2022/04/11 09:24:30;;;;;;;9.65;2.40;;;22.70;99.90;;;;;;6092875;23;20387;-84
2022/04/11 09:26:56;;;;;;;5.28;1.83;;;22.30;99.90;;;;;;6068536;23;20449;-84
2022/04/11 09:29:23;;;;;;;8.80;1.80;;;22.70;99.90;;;;;;6045163;23;20033;-84
2022/04/11 09:31:50;;;;;;;5.10;2.00;;;22.70;99.90;;;;;;6093383;23;20033;-84
2022/04/11 09:34:26;;;;;;;6.10;1.90;;;22.00;99.90;;;;;;6094601;23;20269;-84
2022/04/11 09:36:58;;;;;;;7.90;2.05;;;20.80;99.90;;;;;;6067067;23;20057;-85
2022/04/11 09:39:25;;;;;;;8.57;2.58;;;21.00;99.90;;;;;;6094371;23;20022;-84
2022/04/11 09:41:52;;;;;;;5.70;1.80;;;21.10;99.90;;;;;;6093575;23;20022;-83
2022/04/11 09:44:24;;;;;;;5.00;1.85;;;21.20;99.90;;;;;;6093820;23;20018;-84
2022/04/11 09:46:52;;;;;;;7.72;2.10;;;21.50;99.90;;;;;;6093536;23;20025;-84
2022/04/11 09:49:18;;;;;;;6.88;2.25;;;21.90;99.90;;;;;;6094766;23;20018;-84
2022/04/11 09:52:02;;;;;;;11.05;2.38;;;21.80;99.90;;;;;;6091674;23;20114;-85
2022/04/11 09:54:28;;;;;;;7.10;2.38;;;21.40;99.90;;;;;;6068971;23;20026;-84
2022/04/11 09:56:57;;;;;;;6.75;2.45;;;20.90;99.90;;;;;;6068094;23;20049;-84
2022/04/11 09:59:23;;;;;;;4.60;1.95;;;21.40;99.90;;;;;;6092355;23;20037;-84
2022/04/11 10:01:51;;;;;;;8.15;2.08;;;22.00;99.90;;;;;;6068636;23;20037;-84
2022/04/11 10:04:21;;;;;;;9.05;2.53;;;22.60;99.90;;;;;;6094509;23;20093;-84
2022/04/11 10:06:47;;;;;;;8.68;2.38;;;23.60;99.90;;;;;;6093701;23;20098;-84
2022/04/11 10:09:14;;;;;;;7.80;2.38;;;23.60;99.90;;;;;;6094455;23;20037;-84
2022/04/11 10:11:44;;;;;;;6.82;2.15;;;22.20;99.90;;;;;;6045444;23;20022;-84
2022/04/11 10:14:11;;;;;;;9.40;2.47;;;22.50;99.90;;;;;;6094999;23;20105;-84
2022/04/11 10:16:44;;;;;;;6.15;2.30;;;22.80;99.90;;;;;;6094497;23;20022;-86
2022/04/11 10:19:13;;;;;;;6.82;2.47;;;24.10;99.90;;;;;;6069174;23;20446;-84
2022/04/11 10:21:44;;;;;;;6.32;2.28;;;23.50;99.90;;;;;;6068642;23;20026;-88
2022/04/11 10:24:34;;;;;;;6.65;2.47;;;23.80;99.90;;;;;;6091029;23;20019;-86
2022/04/11 10:27:22;;;;;;;8.55;2.50;;;23.40;99.90;;;;;;6093716;23;20042;-85
2022/04/11 10:29:50;;;;;;;7.43;2.75;;;23.80;99.90;;;;;;6093799;23;20014;-86
2022/04/11 10:32:19;;;;;;;9.57;2.78;;;24.40;99.90;;;;;;6068525;23;20026;-85
2022/04/11 10:34:46;;;;;;;7.05;2.65;;;24.80;99.90;;;;;;6067779;23;20023;-88
2022/04/11 10:37:12;;;;;;;8.77;3.05;;;25.00;99.90;;;;;;6094609;23;20015;-85
2022/04/11 10:39:39;;;;;;;11.60;2.70;;;24.90;99.90;;;;;;6094205;23;20093;-86
2022/04/11 10:42:09;;;;;;;8.77;2.63;;;25.00;99.90;;;;;;6066265;23;20085;-88
2022/04/11 10:44:37;;;;;;;10.27;2.50;;;25.40;99.90;;;;;;6093257;23;20019;-86
2022/04/11 10:47:09;;;;;;;9.52;2.70;;;25.60;99.90;;;;;;6092153;23;20015;-87
2022/04/11 10:49:50;;;;;;;9.10;2.78;;;25.50;99.90;;;;;;6068478;23;20023;-86
2022/04/11 10:52:31;;;;;;;6.85;2.90;;;24.30;99.90;;;;;;6094149;23;20334;-88
2022/04/11 10:55:18;;;;;;;9.63;3.00;;;24.50;99.90;;;;;;6092569;23;20022;-85
2022/04/11 10:57:48;;;;;;;6.93;2.63;;;23.30;99.90;;;;;;6090271;23;20018;-85
2022/04/11 11:00:24;;;;;;;7.20;2.72;;;23.80;99.90;;;;;;6093894;23;20022;-84
2022/04/11 11:02:50;;;;;;;8.38;3.10;;;24.40;99.90;;;;;;6093009;23;20018;-85
2022/04/11 11:05:35;;;;;;;7.82;2.40;;;24.60;99.90;;;;;;6093727;23;20312;-84
2022/04/11 11:08:10;;;;;;;8.80;2.65;;;23.80;99.90;;;;;;6067743;23;20256;-84
2022/04/11 11:10:45;;;;;;;8.77;3.25;;;23.00;99.90;;;;;;6045219;23;20029;-87
2022/04/11 11:13:34;;;;;;;5.80;2.58;;;22.80;99.90;;;;;;6095884;23;20031;-84
2022/04/11 11:16:10;;;;;;;8.00;3.00;;;21.90;99.90;;;;;;6095600;23;20103;-84
2022/04/11 11:18:51;;;;;;;10.63;3.80;;;22.20;99.90;;;;;;6096519;23;20074;-85
2022/04/11 11:21:28;;;;;;;8.77;3.75;;;22.20;99.90;;;;;;6093949;23;20023;-85
2022/04/11 11:24:03;;;;;;;12.70;3.53;;;20.40;99.90;;;;;;6095620;23;20177;-83
2022/04/11 11:26:46;;;;;;;7.07;2.90;;;20.60;99.90;;;;;;6095600;23;20089;-83
2022/04/11 11:29:16;;;;;;;8.48;3.00;;;21.30;99.90;;;;;;6096154;23;20386;-86
2022/04/11 11:31:42;;;;;;;7.95;3.08;;;22.30;99.90;;;;;;6095718;23;20097;-84
2022/04/11 11:34:11;;;;;;;9.70;3.78;;;23.00;99.90;;;;;;6095577;23;20033;-86
2022/04/11 11:36:38;;;;;;;7.57;3.67;;;22.20;99.90;;;;;;6095497;23;20053;-84
2022/04/11 11:39:17;;;;;;;10.15;3.67;;;21.30;99.90;;;;;;6095541;23;20018;-84
2022/04/11 11:41:44;;;;;;;9.35;3.83;;;22.10;99.90;;;;;;6096007;23;20098;-84
2022/04/11 11:44:10;;;;;;;8.75;3.92;;;21.20;99.90;;;;;;6095267;23;20018;-84
2022/04/11 11:46:58;;;;;;;13.25;3.50;;;20.60;99.90;;;;;;6092925;23;20050;-85
2022/04/11 11:49:26;;;;;;;10.27;3.70;;;20.70;99.90;;;;;;6069613;23;20022;-87
2022/04/11 11:51:52;;;;;;;;;;;20.90;99.90;;;;;;6069181;23;20254;-85
2022/04/11 11:54:38;;;;;;;11.73;3.95;;;21.40;99.90;;;;;;6095237;23;19924;-84
2022/04/11 11:57:18;;;;;;;9.52;3.67;;;22.60;99.90;;;;;;6094363;23;20028;-86
2022/04/11 11:59:48;;;;;;;11.27;3.25;;;23.20;99.90;;;;;;6095359;23;20080;-84
2022/04/11 12:04:58;;;;;;;9.38;3.15;;;24.80;99.90;;;;;;6094269;23;20089;-83
2022/04/11 12:07:24;;;;;;;12.85;3.20;;;24.70;99.90;;;;;;6069312;23;20026;-84
2022/04/11 12:09:50;;;;;;;12.10;3.22;;;23.90;99.90;;;;;;6095333;23;20014;-83
2022/04/11 12:12:19;;;;;;;13.15;3.22;;;24.20;99.90;;;;;;6069438;23;20014;-84
2022/04/11 12:15:03;;;;;;;8.40;2.97;;;24.40;99.90;;;;;;6094823;23;20059;-84
2022/04/11 12:17:38;;;;;;;8.77;3.50;;;24.70;99.90;;;;;;6094517;23;20110;-84
2022/04/11 12:20:09;;;;;;;10.02;3.00;;;22.90;99.90;;;;;;6092118;23;20074;-84
2022/04/11 12:22:34;;;;;;;10.00;3.70;;;23.20;99.90;;;;;;6068903;23;20026;-84
2022/04/11 12:25:23;;;;;;;9.93;3.75;;;22.20;99.90;;;;;;6093424;23;20018;-84
2022/04/11 12:27:49;;;;;;;10.07;3.97;;;21.40;99.90;;;;;;6094351;23;20019;-84
2022/04/11 12:30:15;;;;;;;9.70;3.97;;;19.80;99.90;;;;;;6068558;23;20461;-83
2022/04/11 12:32:41;;;;;;;9.98;3.90;;;18.70;99.90;;;;;;6067863;23;20023;-84
2022/04/11 12:35:18;;;;;;;8.05;3.70;;;18.20;99.90;;;;;;6093967;23;20041;-83
2022/04/11 12:37:51;;;;;;;11.05;4.07;;;17.30;99.90;;;;;;6094064;23;20369;-84
2022/04/11 12:40:20;;;;;;;10.43;5.60;;;16.90;99.90;;;;;;6093729;23;20234;-83
2022/04/11 12:42:47;;;;;;;8.68;4.13;;;16.70;99.90;;;;;;6094662;23;20022;-83
2022/04/11 12:45:14;;;;;;;11.60;4.10;;;16.60;99.90;;;;;;6044309;23;20445;-83
2022/04/11 12:47:59;;;;;;;;;;;16.30;99.90;;;;;;6069850;23;20022;-85
2022/04/11 12:50:26;;;;;;;9.85;3.85;;;16.20;99.90;;;;;;6095911;23;19917;-84
2022/04/11 12:52:51;;;;;;;8.73;3.57;;;16.10;99.90;;;;;;6070187;23;20026;-84
2022/04/11 12:55:25;;;;;;;10.55;3.97;;;15.90;99.90;;;;;;6069463;23;20247;-84
2022/04/11 12:58:00;;;;;;;10.05;4.07;;;16.00;99.90;;;;;;6045786;23;20014;-84
2022/04/11 13:00:26;;;;;;;8.02;3.92;;;16.00;99.90;;;;;;6095344;23;20037;-84
2022/04/11 13:02:52;;;;;;;10.10;3.85;;;16.00;99.90;;;;;;6069090;23;20023;-84